KESC/ESC METAR and TAF weather

Enter ICAO airport designator
Station Type Date Time Source
KESC METAR 2020/02/24 08:56 UTC NOAA

KESC 240856Z AUTO 28005KT 10SM CLR M01/M05 A2986 RMK AO2 SLP122 T10111050 51011 FZRANO


Station Type Date Time Source
KESC Decoded METAR 2020/02/24 08:56 UTC NOAA

Escanaba, MI, United States (KESC) 45-45N 087-02W 187M
Feb 24, 2020 - 03:56 AM EST / 2020.02.24 0856 UTC
Wind: from the W (280 degrees) at 6 MPH (5 KT):0
Visibility: 10 mile(s):0
Sky conditions: clear
Temperature: 30.0 F (-1.1 C)
Windchill: 23 F (-5 C):1
Dew Point: 23.0 F (-5.0 C)
Relative Humidity: 74%
Pressure (altimeter): 29.86 in. Hg (1011 hPa)
Pressure tendency: 0.03 inches (1.1 hPa) higher than three hours ago
ob: KESC 240856Z AUTO 28005KT 10SM CLR M01/M05 A2986 RMK AO2 SLP122 T10111050 51011 FZRANO
cycle: 9

Station Type Date Time Source
KESC TAF UTC NOAA

Error!

Example: see airport list